sensor_id;sensor_type;location;lat;lon;timestamp;P1;durP1;ratioP1;P2;durP2;ratioP2
35434;SDS011;21556;55.782;37.528;2023-04-08T00:01:24;7.78;;;2.92;;
35434;SDS011;21556;55.782;37.528;2023-04-08T00:03:50;7.15;;;3.42;;
35434;SDS011;21556;55.782;37.528;2023-04-08T00:06:19;8.00;;;3.60;;
35434;SDS011;21556;55.782;37.528;2023-04-08T00:08:50;4.97;;;3.20;;
35434;SDS011;21556;55.782;37.528;2023-04-08T00:11:16;5.20;;;3.28;;
35434;SDS011;21556;55.782;37.528;2023-04-08T00:13:47;10.30;;;3.72;;
35434;SDS011;21556;55.782;37.528;2023-04-08T00:16:16;8.20;;;3.40;;
35434;SDS011;21556;55.782;37.528;2023-04-08T00:18:50;13.20;;;3.55;;
35434;SDS011;21556;55.782;37.528;2023-04-08T00:21:19;12.77;;;4.13;;
35434;SDS011;21556;55.782;37.528;2023-04-08T00:23:46;7.18;;;3.10;;
35434;SDS011;21556;55.782;37.528;2023-04-08T00:26:12;7.35;;;3.30;;
35434;SDS011;21556;55.782;37.528;2023-04-08T00:28:42;6.63;;;3.80;;
35434;SDS011;21556;55.782;37.528;2023-04-08T00:31:13;10.10;;;4.10;;
35434;SDS011;21556;55.782;37.528;2023-04-08T00:33:39;6.72;;;3.40;;
35434;SDS011;21556;55.782;37.528;2023-04-08T00:36:09;7.95;;;3.67;;
35434;SDS011;21556;55.782;37.528;2023-04-08T00:38:38;5.80;;;2.92;;
35434;SDS011;21556;55.782;37.528;2023-04-08T00:41:08;6.25;;;3.70;;
35434;SDS011;21556;55.782;37.528;2023-04-08T00:43:35;7.82;;;3.95;;
35434;SDS011;21556;55.782;37.528;2023-04-08T00:46:01;7.43;;;3.78;;
35434;SDS011;21556;55.782;37.528;2023-04-08T00:48:30;9.82;;;4.70;;
35434;SDS011;21556;55.782;37.528;2023-04-08T00:50:57;14.20;;;4.07;;
35434;SDS011;21556;55.782;37.528;2023-04-08T00:53:26;8.63;;;4.20;;
35434;SDS011;21556;55.782;37.528;2023-04-08T00:55:53;5.70;;;3.65;;
35434;SDS011;21556;55.782;37.528;2023-04-08T00:58:19;8.73;;;3.60;;
35434;SDS011;21556;55.782;37.528;2023-04-08T01:00:57;9.07;;;3.70;;
35434;SDS011;21556;55.782;37.528;2023-04-08T01:09:53;11.02;;;3.92;;
35434;SDS011;21556;55.782;37.528;2023-04-08T01:12:26;15.20;;;3.85;;
35434;SDS011;21556;55.782;37.528;2023-04-08T01:15:06;9.65;;;4.13;;
35434;SDS011;21556;55.782;37.528;2023-04-08T01:17:35;13.35;;;4.50;;
35434;SDS011;21556;55.782;37.528;2023-04-08T01:20:03;9.30;;;4.03;;
35434;SDS011;21556;55.782;37.528;2023-04-08T01:22:36;7.00;;;3.93;;
35434;SDS011;21556;55.782;37.528;2023-04-08T01:25:19;8.73;;;3.15;;
35434;SDS011;21556;55.782;37.528;2023-04-08T01:27:49;8.55;;;4.10;;
35434;SDS011;21556;55.782;37.528;2023-04-08T01:30:18;7.03;;;3.75;;
35434;SDS011;21556;55.782;37.528;2023-04-08T01:32:46;6.00;;;3.45;;
35434;SDS011;21556;55.782;37.528;2023-04-08T01:35:14;12.23;;;3.90;;
35434;SDS011;21556;55.782;37.528;2023-04-08T01:37:41;6.03;;;3.38;;
35434;SDS011;21556;55.782;37.528;2023-04-08T01:40:08;7.43;;;3.50;;
35434;SDS011;21556;55.782;37.528;2023-04-08T01:42:38;8.02;;;3.60;;
35434;SDS011;21556;55.782;37.528;2023-04-08T01:45:10;11.55;;;4.30;;
35434;SDS011;21556;55.782;37.528;2023-04-08T01:47:37;9.27;;;3.55;;
35434;SDS011;21556;55.782;37.528;2023-04-08T01:50:05;7.65;;;4.22;;
35434;SDS011;21556;55.782;37.528;2023-04-08T01:52:34;8.25;;;2.67;;
35434;SDS011;21556;55.782;37.528;2023-04-08T01:55:02;9.68;;;4.00;;
35434;SDS011;21556;55.782;37.528;2023-04-08T01:57:31;8.05;;;3.00;;
35434;SDS011;21556;55.782;37.528;2023-04-08T02:00:01;6.47;;;3.65;;
35434;SDS011;21556;55.782;37.528;2023-04-08T02:02:45;9.60;;;3.35;;
35434;SDS011;21556;55.782;37.528;2023-04-08T02:05:18;8.90;;;3.67;;
35434;SDS011;21556;55.782;37.528;2023-04-08T02:07:45;10.02;;;3.60;;
35434;SDS011;21556;55.782;37.528;2023-04-08T02:10:17;8.13;;;3.30;;
35434;SDS011;21556;55.782;37.528;2023-04-08T02:12:43;8.23;;;3.60;;
35434;SDS011;21556;55.782;37.528;2023-04-08T02:15:14;6.18;;;4.13;;
35434;SDS011;21556;55.782;37.528;2023-04-08T02:17:49;6.93;;;3.60;;
35434;SDS011;21556;55.782;37.528;2023-04-08T02:20:42;5.93;;;3.80;;
35434;SDS011;21556;55.782;37.528;2023-04-08T02:23:15;10.75;;;4.40;;
35434;SDS011;21556;55.782;37.528;2023-04-08T02:25:46;13.65;;;3.90;;
35434;SDS011;21556;55.782;37.528;2023-04-08T02:28:13;12.05;;;4.32;;
35434;SDS011;21556;55.782;37.528;2023-04-08T02:30:43;10.95;;;4.45;;
35434;SDS011;21556;55.782;37.528;2023-04-08T02:33:14;9.52;;;4.28;;
35434;SDS011;21556;55.782;37.528;2023-04-08T02:35:47;8.25;;;3.70;;
35434;SDS011;21556;55.782;37.528;2023-04-08T02:38:19;7.35;;;4.13;;
35434;SDS011;21556;55.782;37.528;2023-04-08T02:40:48;9.13;;;3.70;;
35434;SDS011;21556;55.782;37.528;2023-04-08T02:43:16;12.38;;;5.13;;
35434;SDS011;21556;55.782;37.528;2023-04-08T02:45:43;11.05;;;4.05;;
35434;SDS011;21556;55.782;37.528;2023-04-08T02:48:14;9.70;;;3.67;;
35434;SDS011;21556;55.782;37.528;2023-04-08T02:50:40;7.30;;;3.63;;
35434;SDS011;21556;55.782;37.528;2023-04-08T02:53:06;8.38;;;4.10;;
35434;SDS011;21556;55.782;37.528;2023-04-08T02:55:33;11.27;;;4.03;;
35434;SDS011;21556;55.782;37.528;2023-04-08T02:57:59;7.03;;;3.53;;
35434;SDS011;21556;55.782;37.528;2023-04-08T03:00:25;11.27;;;4.22;;
35434;SDS011;21556;55.782;37.528;2023-04-08T03:02:51;12.98;;;4.05;;
35434;SDS011;21556;55.782;37.528;2023-04-08T03:05:17;13.32;;;4.13;;
35434;SDS011;21556;55.782;37.528;2023-04-08T03:07:44;10.07;;;4.20;;
35434;SDS011;21556;55.782;37.528;2023-04-08T03:10:10;17.00;;;4.20;;
35434;SDS011;21556;55.782;37.528;2023-04-08T03:12:41;9.27;;;3.95;;
35434;SDS011;21556;55.782;37.528;2023-04-08T03:15:07;9.07;;;4.53;;
35434;SDS011;21556;55.782;37.528;2023-04-08T03:17:34;12.40;;;4.53;;
35434;SDS011;21556;55.782;37.528;2023-04-08T03:20:00;9.00;;;4.00;;
35434;SDS011;21556;55.782;37.528;2023-04-08T03:22:29;6.75;;;4.05;;
35434;SDS011;21556;55.782;37.528;2023-04-08T03:24:58;9.30;;;3.60;;
35434;SDS011;21556;55.782;37.528;2023-04-08T03:27:24;9.95;;;3.67;;
35434;SDS011;21556;55.782;37.528;2023-04-08T03:29:50;10.82;;;4.50;;
35434;SDS011;21556;55.782;37.528;2023-04-08T03:32:17;8.60;;;4.20;;
35434;SDS011;21556;55.782;37.528;2023-04-08T03:34:43;7.38;;;4.40;;
35434;SDS011;21556;55.782;37.528;2023-04-08T03:37:14;14.85;;;4.13;;
35434;SDS011;21556;55.782;37.528;2023-04-08T03:39:40;11.13;;;4.40;;
35434;SDS011;21556;55.782;37.528;2023-04-08T03:42:05;11.70;;;4.78;;
35434;SDS011;21556;55.782;37.528;2023-04-08T03:44:31;8.20;;;4.47;;
35434;SDS011;21556;55.782;37.528;2023-04-08T03:46:57;9.23;;;4.68;;
35434;SDS011;21556;55.782;37.528;2023-04-08T03:49:23;7.65;;;3.88;;
35434;SDS011;21556;55.782;37.528;2023-04-08T03:51:52;11.77;;;4.93;;
35434;SDS011;21556;55.782;37.528;2023-04-08T03:54:18;13.98;;;4.38;;
35434;SDS011;21556;55.782;37.528;2023-04-08T03:56:44;11.55;;;5.80;;
35434;SDS011;21556;55.782;37.528;2023-04-08T03:59:10;8.18;;;4.68;;
35434;SDS011;21556;55.782;37.528;2023-04-08T04:01:36;9.93;;;4.93;;
35434;SDS011;21556;55.782;37.528;2023-04-08T04:04:02;11.02;;;4.70;;
35434;SDS011;21556;55.782;37.528;2023-04-08T04:06:28;9.60;;;4.32;;
35434;SDS011;21556;55.782;37.528;2023-04-08T04:08:55;12.45;;;5.00;;
35434;SDS011;21556;55.782;37.528;2023-04-08T04:11:21;10.02;;;5.05;;
35434;SDS011;21556;55.782;37.528;2023-04-08T04:13:48;11.30;;;5.22;;
35434;SDS011;21556;55.782;37.528;2023-04-08T04:16:14;14.07;;;5.05;;
35434;SDS011;21556;55.782;37.528;2023-04-08T04:18:40;10.68;;;4.70;;
35434;SDS011;21556;55.782;37.528;2023-04-08T04:21:06;11.35;;;5.38;;
35434;SDS011;21556;55.782;37.528;2023-04-08T04:23:33;16.52;;;4.90;;
35434;SDS011;21556;55.782;37.528;2023-04-08T04:25:59;8.40;;;4.35;;
35434;SDS011;21556;55.782;37.528;2023-04-08T04:28:27;8.13;;;4.85;;
35434;SDS011;21556;55.782;37.528;2023-04-08T04:30:53;11.40;;;4.57;;
35434;SDS011;21556;55.782;37.528;2023-04-08T04:33:19;15.70;;;5.50;;
35434;SDS011;21556;55.782;37.528;2023-04-08T04:35:46;14.25;;;5.28;;
35434;SDS011;21556;55.782;37.528;2023-04-08T04:38:12;14.13;;;5.20;;
35434;SDS011;21556;55.782;37.528;2023-04-08T04:40:38;14.70;;;5.45;;
35434;SDS011;21556;55.782;37.528;2023-04-08T04:43:08;14.45;;;5.60;;
35434;SDS011;21556;55.782;37.528;2023-04-08T04:45:34;14.00;;;6.05;;
35434;SDS011;21556;55.782;37.528;2023-04-08T04:48:01;17.38;;;5.78;;
35434;SDS011;21556;55.782;37.528;2023-04-08T04:50:37;10.98;;;5.63;;
35434;SDS011;21556;55.782;37.528;2023-04-08T04:53:03;21.33;;;7.72;;
35434;SDS011;21556;55.782;37.528;2023-04-08T04:55:29;8.65;;;5.13;;
35434;SDS011;21556;55.782;37.528;2023-04-08T04:57:56;15.95;;;5.82;;
35434;SDS011;21556;55.782;37.528;2023-04-08T05:00:25;13.63;;;5.88;;
35434;SDS011;21556;55.782;37.528;2023-04-08T05:02:52;16.90;;;5.75;;
35434;SDS011;21556;55.782;37.528;2023-04-08T05:05:18;11.23;;;5.57;;
35434;SDS011;21556;55.782;37.528;2023-04-08T05:07:46;12.70;;;6.13;;
35434;SDS011;21556;55.782;37.528;2023-04-08T05:10:16;16.45;;;5.90;;
35434;SDS011;21556;55.782;37.528;2023-04-08T05:12:47;31.90;;;8.63;;
35434;SDS011;21556;55.782;37.528;2023-04-08T05:15:48;11.43;;;5.85;;
35434;SDS011;21556;55.782;37.528;2023-04-08T05:18:14;9.10;;;5.50;;
35434;SDS011;21556;55.782;37.528;2023-04-08T05:20:57;19.77;;;6.15;;
35434;SDS011;21556;55.782;37.528;2023-04-08T05:23:34;13.60;;;5.75;;
35434;SDS011;21556;55.782;37.528;2023-04-08T05:26:10;11.50;;;5.63;;
35434;SDS011;21556;55.782;37.528;2023-04-08T05:31:43;8.77;;;5.25;;
35434;SDS011;21556;55.782;37.528;2023-04-08T05:34:10;11.77;;;5.63;;
35434;SDS011;21556;55.782;37.528;2023-04-08T05:36:36;9.93;;;5.55;;
35434;SDS011;21556;55.782;37.528;2023-04-08T05:39:02;12.80;;;6.30;;
35434;SDS011;21556;55.782;37.528;2023-04-08T05:41:41;12.48;;;5.80;;
35434;SDS011;21556;55.782;37.528;2023-04-08T05:44:10;14.15;;;6.55;;
35434;SDS011;21556;55.782;37.528;2023-04-08T05:46:40;12.85;;;6.20;;
35434;SDS011;21556;55.782;37.528;2023-04-08T05:49:06;12.45;;;5.90;;
35434;SDS011;21556;55.782;37.528;2023-04-08T05:51:32;14.30;;;6.93;;
35434;SDS011;21556;55.782;37.528;2023-04-08T05:53:58;15.90;;;6.25;;
35434;SDS011;21556;55.782;37.528;2023-04-08T05:56:24;18.40;;;6.35;;
35434;SDS011;21556;55.782;37.528;2023-04-08T05:58:49;18.13;;;6.20;;
35434;SDS011;21556;55.782;37.528;2023-04-08T06:01:15;12.27;;;6.78;;
35434;SDS011;21556;55.782;37.528;2023-04-08T06:03:41;24.83;;;6.95;;
35434;SDS011;21556;55.782;37.528;2023-04-08T06:06:10;16.25;;;6.25;;
35434;SDS011;21556;55.782;37.528;2023-04-08T06:08:37;12.43;;;6.30;;
35434;SDS011;21556;55.782;37.528;2023-04-08T06:11:03;15.88;;;6.53;;
35434;SDS011;21556;55.782;37.528;2023-04-08T06:13:29;12.15;;;6.10;;
35434;SDS011;21556;55.782;37.528;2023-04-08T06:15:56;19.75;;;6.22;;
35434;SDS011;21556;55.782;37.528;2023-04-08T06:18:23;15.10;;;6.43;;
35434;SDS011;21556;55.782;37.528;2023-04-08T06:20:49;18.23;;;6.50;;
35434;SDS011;21556;55.782;37.528;2023-04-08T06:23:15;17.00;;;6.82;;
35434;SDS011;21556;55.782;37.528;2023-04-08T06:25:41;16.05;;;6.47;;
35434;SDS011;21556;55.782;37.528;2023-04-08T06:28:07;15.30;;;7.03;;
35434;SDS011;21556;55.782;37.528;2023-04-08T06:30:34;15.75;;;7.30;;
35434;SDS011;21556;55.782;37.528;2023-04-08T06:33:00;19.20;;;6.80;;
35434;SDS011;21556;55.782;37.528;2023-04-08T06:35:26;12.43;;;6.70;;
35434;SDS011;21556;55.782;37.528;2023-04-08T06:37:52;21.98;;;7.65;;
35434;SDS011;21556;55.782;37.528;2023-04-08T06:40:21;11.38;;;6.45;;
35434;SDS011;21556;55.782;37.528;2023-04-08T06:42:47;15.43;;;6.40;;
35434;SDS011;21556;55.782;37.528;2023-04-08T06:45:19;16.80;;;6.82;;
35434;SDS011;21556;55.782;37.528;2023-04-08T06:47:45;15.73;;;7.43;;
35434;SDS011;21556;55.782;37.528;2023-04-08T06:50:11;19.83;;;6.53;;
35434;SDS011;21556;55.782;37.528;2023-04-08T06:52:37;13.95;;;6.80;;
35434;SDS011;21556;55.782;37.528;2023-04-08T06:55:03;17.70;;;6.97;;
35434;SDS011;21556;55.782;37.528;2023-04-08T06:57:29;21.30;;;7.40;;
35434;SDS011;21556;55.782;37.528;2023-04-08T06:59:55;21.45;;;7.93;;
35434;SDS011;21556;55.782;37.528;2023-04-08T07:02:23;24.38;;;7.50;;
35434;SDS011;21556;55.782;37.528;2023-04-08T07:04:49;13.27;;;6.70;;
35434;SDS011;21556;55.782;37.528;2023-04-08T07:07:16;17.00;;;6.55;;
35434;SDS011;21556;55.782;37.528;2023-04-08T07:09:42;18.17;;;6.60;;
35434;SDS011;21556;55.782;37.528;2023-04-08T07:12:11;16.83;;;6.07;;
35434;SDS011;21556;55.782;37.528;2023-04-08T07:14:37;14.82;;;6.35;;
35434;SDS011;21556;55.782;37.528;2023-04-08T07:17:03;10.65;;;6.28;;
35434;SDS011;21556;55.782;37.528;2023-04-08T07:19:29;18.05;;;6.10;;
35434;SDS011;21556;55.782;37.528;2023-04-08T07:21:55;17.27;;;6.72;;
35434;SDS011;21556;55.782;37.528;2023-04-08T07:24:24;16.00;;;6.07;;
35434;SDS011;21556;55.782;37.528;2023-04-08T07:26:51;12.15;;;6.70;;
35434;SDS011;21556;55.782;37.528;2023-04-08T07:31:45;18.05;;;6.93;;
35434;SDS011;21556;55.782;37.528;2023-04-08T07:34:12;21.77;;;6.72;;
35434;SDS011;21556;55.782;37.528;2023-04-08T07:36:40;12.93;;;6.47;;
35434;SDS011;21556;55.782;37.528;2023-04-08T07:39:06;14.88;;;5.78;;
35434;SDS011;21556;55.782;37.528;2023-04-08T07:41:32;11.30;;;5.57;;
35434;SDS011;21556;55.782;37.528;2023-04-08T07:43:59;13.05;;;6.00;;
35434;SDS011;21556;55.782;37.528;2023-04-08T07:46:28;14.35;;;6.60;;
35434;SDS011;21556;55.782;37.528;2023-04-08T07:49:00;12.05;;;5.60;;
35434;SDS011;21556;55.782;37.528;2023-04-08T07:51:27;14.18;;;5.32;;
35434;SDS011;21556;55.782;37.528;2023-04-08T07:53:54;15.18;;;5.30;;
35434;SDS011;21556;55.782;37.528;2023-04-08T07:56:20;11.20;;;4.57;;
35434;SDS011;21556;55.782;37.528;2023-04-08T07:58:46;9.80;;;5.28;;
35434;SDS011;21556;55.782;37.528;2023-04-08T08:01:15;14.20;;;6.73;;
35434;SDS011;21556;55.782;37.528;2023-04-08T08:03:43;7.70;;;5.15;;
35434;SDS011;21556;55.782;37.528;2023-04-08T08:06:10;14.55;;;5.00;;
35434;SDS011;21556;55.782;37.528;2023-04-08T08:08:38;8.35;;;5.55;;
35434;SDS011;21556;55.782;37.528;2023-04-08T08:11:06;11.77;;;5.38;;
35434;SDS011;21556;55.782;37.528;2023-04-08T08:13:33;17.52;;;5.95;;
35434;SDS011;21556;55.782;37.528;2023-04-08T08:16:02;15.43;;;5.55;;
35434;SDS011;21556;55.782;37.528;2023-04-08T08:18:34;8.35;;;4.25;;
35434;SDS011;21556;55.782;37.528;2023-04-08T08:21:12;11.45;;;4.88;;
35434;SDS011;21556;55.782;37.528;2023-04-08T08:23:46;17.38;;;5.60;;
35434;SDS011;21556;55.782;37.528;2023-04-08T08:26:12;10.40;;;3.97;;
35434;SDS011;21556;55.782;37.528;2023-04-08T08:28:39;8.57;;;3.92;;
35434;SDS011;21556;55.782;37.528;2023-04-08T08:31:05;8.15;;;2.95;;
35434;SDS011;21556;55.782;37.528;2023-04-08T08:33:32;9.25;;;3.35;;
35434;SDS011;21556;55.782;37.528;2023-04-08T08:35:58;12.88;;;4.00;;
35434;SDS011;21556;55.782;37.528;2023-04-08T08:38:29;8.80;;;4.18;;
35434;SDS011;21556;55.782;37.528;2023-04-08T08:40:55;7.47;;;4.10;;
35434;SDS011;21556;55.782;37.528;2023-04-08T08:43:27;7.30;;;4.00;;
35434;SDS011;21556;55.782;37.528;2023-04-08T08:46:01;9.82;;;4.20;;
35434;SDS011;21556;55.782;37.528;2023-04-08T08:48:30;11.07;;;3.40;;
35434;SDS011;21556;55.782;37.528;2023-04-08T08:50:57;7.53;;;3.72;;
35434;SDS011;21556;55.782;37.528;2023-04-08T08:53:30;6.25;;;2.97;;
35434;SDS011;21556;55.782;37.528;2023-04-08T08:55:57;7.80;;;4.15;;
35434;SDS011;21556;55.782;37.528;2023-04-08T08:58:25;7.70;;;3.70;;
35434;SDS011;21556;55.782;37.528;2023-04-08T09:00:52;8.27;;;3.50;;
35434;SDS011;21556;55.782;37.528;2023-04-08T09:03:22;9.88;;;3.60;;
35434;SDS011;21556;55.782;37.528;2023-04-08T09:05:53;6.47;;;3.50;;
35434;SDS011;21556;55.782;37.528;2023-04-08T09:08:26;8.70;;;3.53;;
35434;SDS011;21556;55.782;37.528;2023-04-08T09:10:54;6.50;;;4.30;;
35434;SDS011;21556;55.782;37.528;2023-04-08T09:13:21;9.50;;;3.55;;
35434;SDS011;21556;55.782;37.528;2023-04-08T09:16:00;10.13;;;3.85;;
35434;SDS011;21556;55.782;37.528;2023-04-08T09:18:33;5.57;;;3.53;;
35434;SDS011;21556;55.782;37.528;2023-04-08T09:21:00;6.60;;;3.72;;
35434;SDS011;21556;55.782;37.528;2023-04-08T09:23:47;6.07;;;3.00;;
35434;SDS011;21556;55.782;37.528;2023-04-08T09:26:25;7.00;;;3.80;;
35434;SDS011;21556;55.782;37.528;2023-04-08T09:29:04;9.68;;;3.20;;
35434;SDS011;21556;55.782;37.528;2023-04-08T09:31:33;9.30;;;4.20;;
35434;SDS011;21556;55.782;37.528;2023-04-08T09:34:11;11.02;;;3.15;;
35434;SDS011;21556;55.782;37.528;2023-04-08T09:36:44;10.18;;;4.57;;
35434;SDS011;21556;55.782;37.528;2023-04-08T09:39:13;11.15;;;4.75;;
35434;SDS011;21556;55.782;37.528;2023-04-08T09:41:41;9.77;;;4.80;;
35434;SDS011;21556;55.782;37.528;2023-04-08T09:48:42;11.63;;;4.93;;
35434;SDS011;21556;55.782;37.528;2023-04-08T09:51:16;11.73;;;4.93;;
35434;SDS011;21556;55.782;37.528;2023-04-08T09:53:55;18.13;;;5.07;;
35434;SDS011;21556;55.782;37.528;2023-04-08T10:00:17;17.30;;;6.53;;
35434;SDS011;21556;55.782;37.528;2023-04-08T10:06:04;13.63;;;6.18;;
35434;SDS011;21556;55.782;37.528;2023-04-08T10:08:42;11.65;;;5.40;;
35434;SDS011;21556;55.782;37.528;2023-04-08T10:11:09;8.82;;;5.57;;
35434;SDS011;21556;55.782;37.528;2023-04-08T10:13:36;15.07;;;5.95;;
35434;SDS011;21556;55.782;37.528;2023-04-08T10:16:17;21.17;;;6.72;;
35434;SDS011;21556;55.782;37.528;2023-04-08T10:18:49;13.77;;;5.50;;
35434;SDS011;21556;55.782;37.528;2023-04-08T10:21:32;13.48;;;5.30;;
35434;SDS011;21556;55.782;37.528;2023-04-08T10:24:02;14.95;;;5.30;;
35434;SDS011;21556;55.782;37.528;2023-04-08T10:26:32;11.23;;;5.38;;
35434;SDS011;21556;55.782;37.528;2023-04-08T10:31:46;16.00;;;4.85;;
35434;SDS011;21556;55.782;37.528;2023-04-08T10:34:15;11.15;;;4.65;;
35434;SDS011;21556;55.782;37.528;2023-04-08T10:36:45;8.88;;;4.70;;
35434;SDS011;21556;55.782;37.528;2023-04-08T10:39:15;9.32;;;5.05;;
35434;SDS011;21556;55.782;37.528;2023-04-08T10:41:42;9.48;;;5.13;;
35434;SDS011;21556;55.782;37.528;2023-04-08T10:44:25;7.90;;;4.95;;
35434;SDS011;21556;55.782;37.528;2023-04-08T10:46:52;8.50;;;4.57;;
35434;SDS011;21556;55.782;37.528;2023-04-08T10:49:22;10.73;;;5.15;;
35434;SDS011;21556;55.782;37.528;2023-04-08T10:51:57;14.38;;;4.78;;
35434;SDS011;21556;55.782;37.528;2023-04-08T10:54:23;8.30;;;4.57;;
35434;SDS011;21556;55.782;37.528;2023-04-08T10:56:50;12.55;;;5.35;;
35434;SDS011;21556;55.782;37.528;2023-04-08T10:59:28;14.43;;;5.35;;
35434;SDS011;21556;55.782;37.528;2023-04-08T11:01:56;13.18;;;5.45;;
35434;SDS011;21556;55.782;37.528;2023-04-08T11:04:23;11.57;;;5.65;;
35434;SDS011;21556;55.782;37.528;2023-04-08T11:06:50;14.20;;;6.13;;
35434;SDS011;21556;55.782;37.528;2023-04-08T11:09:17;13.18;;;5.55;;
35434;SDS011;21556;55.782;37.528;2023-04-08T11:11:45;10.55;;;5.53;;
35434;SDS011;21556;55.782;37.528;2023-04-08T11:14:11;11.95;;;5.35;;
35434;SDS011;21556;55.782;37.528;2023-04-08T11:16:40;13.70;;;5.43;;
35434;SDS011;21556;55.782;37.528;2023-04-08T11:19:06;18.75;;;5.95;;
35434;SDS011;21556;55.782;37.528;2023-04-08T11:21:36;14.85;;;5.85;;
35434;SDS011;21556;55.782;37.528;2023-04-08T11:24:09;10.60;;;5.53;;
35434;SDS011;21556;55.782;37.528;2023-04-08T11:26:40;11.10;;;5.53;;
35434;SDS011;21556;55.782;37.528;2023-04-08T11:29:08;11.75;;;6.05;;
35434;SDS011;21556;55.782;37.528;2023-04-08T11:31:38;11.63;;;5.70;;
35434;SDS011;21556;55.782;37.528;2023-04-08T11:34:06;12.60;;;5.47;;
35434;SDS011;21556;55.782;37.528;2023-04-08T11:36:33;10.55;;;5.40;;
35434;SDS011;21556;55.782;37.528;2023-04-08T11:39:05;6.18;;;5.28;;
35434;SDS011;21556;55.782;37.528;2023-04-08T11:41:51;10.88;;;5.40;;
35434;SDS011;21556;55.782;37.528;2023-04-08T11:47:14;12.77;;;5.55;;
35434;SDS011;21556;55.782;37.528;2023-04-08T11:49:44;8.35;;;4.82;;
35434;SDS011;21556;55.782;37.528;2023-04-08T11:52:11;8.65;;;4.82;;
35434;SDS011;21556;55.782;37.528;2023-04-08T11:54:40;9.32;;;5.07;;
35434;SDS011;21556;55.782;37.528;2023-04-08T11:57:09;11.65;;;5.93;;
35434;SDS011;21556;55.782;37.528;2023-04-08T11:59:35;10.65;;;5.38;;
35434;SDS011;21556;55.782;37.528;2023-04-08T12:02:02;9.68;;;4.55;;
35434;SDS011;21556;55.782;37.528;2023-04-08T12:04:29;14.27;;;4.78;;
35434;SDS011;21556;55.782;37.528;2023-04-08T12:06:55;11.98;;;4.90;;
35434;SDS011;21556;55.782;37.528;2023-04-08T12:09:22;13.15;;;5.65;;
35434;SDS011;21556;55.782;37.528;2023-04-08T12:11:49;12.20;;;5.72;;
35434;SDS011;21556;55.782;37.528;2023-04-08T12:14:15;9.02;;;5.10;;
35434;SDS011;21556;55.782;37.528;2023-04-08T12:16:43;7.27;;;4.93;;
35434;SDS011;21556;55.782;37.528;2023-04-08T12:19:10;7.78;;;5.10;;
35434;SDS011;21556;55.782;37.528;2023-04-08T12:21:39;8.40;;;4.97;;
35434;SDS011;21556;55.782;37.528;2023-04-08T12:24:05;11.13;;;5.35;;
35434;SDS011;21556;55.782;37.528;2023-04-08T12:26:31;13.30;;;5.57;;
35434;SDS011;21556;55.782;37.528;2023-04-08T12:28:57;12.07;;;5.97;;
35434;SDS011;21556;55.782;37.528;2023-04-08T12:31:23;12.32;;;5.50;;
35434;SDS011;21556;55.782;37.528;2023-04-08T12:33:53;11.88;;;5.53;;
35434;SDS011;21556;55.782;37.528;2023-04-08T12:36:22;9.05;;;5.90;;
35434;SDS011;21556;55.782;37.528;2023-04-08T12:39:42;15.75;;;5.45;;
35434;SDS011;21556;55.782;37.528;2023-04-08T12:42:12;8.85;;;5.57;;
35434;SDS011;21556;55.782;37.528;2023-04-08T12:44:38;13.55;;;5.97;;
35434;SDS011;21556;55.782;37.528;2023-04-08T12:47:07;10.30;;;5.60;;
35434;SDS011;21556;55.782;37.528;2023-04-08T12:49:34;9.25;;;4.85;;
35434;SDS011;21556;55.782;37.528;2023-04-08T12:52:04;14.88;;;6.20;;
35434;SDS011;21556;55.782;37.528;2023-04-08T12:54:39;8.93;;;5.93;;
35434;SDS011;21556;55.782;37.528;2023-04-08T12:57:05;7.93;;;5.97;;
35434;SDS011;21556;55.782;37.528;2023-04-08T12:59:31;8.05;;;5.97;;
35434;SDS011;21556;55.782;37.528;2023-04-08T13:01:58;10.57;;;6.95;;
35434;SDS011;21556;55.782;37.528;2023-04-08T13:04:24;11.00;;;6.32;;
35434;SDS011;21556;55.782;37.528;2023-04-08T13:06:52;13.73;;;6.28;;
35434;SDS011;21556;55.782;37.528;2023-04-08T13:09:19;8.93;;;6.40;;
35434;SDS011;21556;55.782;37.528;2023-04-08T13:11:46;8.82;;;6.43;;
35434;SDS011;21556;55.782;37.528;2023-04-08T13:14:12;7.68;;;5.72;;
35434;SDS011;21556;55.782;37.528;2023-04-08T13:16:38;18.13;;;6.65;;
35434;SDS011;21556;55.782;37.528;2023-04-08T13:19:05;12.15;;;6.72;;
35434;SDS011;21556;55.782;37.528;2023-04-08T13:21:34;7.95;;;6.05;;
35434;SDS011;21556;55.782;37.528;2023-04-08T13:23:59;11.57;;;7.18;;
35434;SDS011;21556;55.782;37.528;2023-04-08T13:26:25;12.07;;;7.22;;
35434;SDS011;21556;55.782;37.528;2023-04-08T13:28:54;15.57;;;7.00;;
35434;SDS011;21556;55.782;37.528;2023-04-08T13:31:24;12.43;;;6.75;;
35434;SDS011;21556;55.782;37.528;2023-04-08T13:33:51;10.52;;;6.57;;
35434;SDS011;21556;55.782;37.528;2023-04-08T13:36:17;9.15;;;6.22;;
35434;SDS011;21556;55.782;37.528;2023-04-08T13:38:43;16.25;;;6.28;;
35434;SDS011;21556;55.782;37.528;2023-04-08T13:41:10;10.00;;;5.35;;
35434;SDS011;21556;55.782;37.528;2023-04-08T13:43:36;12.45;;;5.90;;
35434;SDS011;21556;55.782;37.528;2023-04-08T13:46:02;13.27;;;5.72;;
35434;SDS011;21556;55.782;37.528;2023-04-08T13:48:28;11.68;;;5.40;;
35434;SDS011;21556;55.782;37.528;2023-04-08T13:50:54;10.25;;;5.60;;
35434;SDS011;21556;55.782;37.528;2023-04-08T13:53:20;10.77;;;5.55;;
35434;SDS011;21556;55.782;37.528;2023-04-08T13:55:46;11.15;;;5.80;;
35434;SDS011;21556;55.782;37.528;2023-04-08T13:58:13;10.00;;;6.13;;
35434;SDS011;21556;55.782;37.528;2023-04-08T14:00:39;9.25;;;5.57;;
35434;SDS011;21556;55.782;37.528;2023-04-08T14:03:05;10.95;;;5.30;;
35434;SDS011;21556;55.782;37.528;2023-04-08T14:05:31;8.32;;;5.25;;
35434;SDS011;21556;55.782;37.528;2023-04-08T14:07:57;8.48;;;4.85;;
35434;SDS011;21556;55.782;37.528;2023-04-08T14:10:30;8.02;;;4.97;;
35434;SDS011;21556;55.782;37.528;2023-04-08T14:13:14;8.32;;;5.50;;
35434;SDS011;21556;55.782;37.528;2023-04-08T14:15:48;9.88;;;5.10;;
35434;SDS011;21556;55.782;37.528;2023-04-08T14:18:14;8.23;;;5.00;;
35434;SDS011;21556;55.782;37.528;2023-04-08T14:20:44;11.38;;;5.13;;
35434;SDS011;21556;55.782;37.528;2023-04-08T14:23:10;14.15;;;5.60;;
35434;SDS011;21556;55.782;37.528;2023-04-08T14:25:38;13.68;;;4.75;;
35434;SDS011;21556;55.782;37.528;2023-04-08T14:28:04;12.93;;;5.00;;
35434;SDS011;21556;55.782;37.528;2023-04-08T14:30:30;10.05;;;4.82;;
35434;SDS011;21556;55.782;37.528;2023-04-08T14:32:57;10.38;;;4.18;;
35434;SDS011;21556;55.782;37.528;2023-04-08T14:35:34;9.98;;;4.60;;
35434;SDS011;21556;55.782;37.528;2023-04-08T14:38:01;10.13;;;4.40;;
35434;SDS011;21556;55.782;37.528;2023-04-08T14:40:32;9.57;;;4.70;;
35434;SDS011;21556;55.782;37.528;2023-04-08T14:43:04;14.57;;;5.20;;
35434;SDS011;21556;55.782;37.528;2023-04-08T14:45:31;12.20;;;4.72;;
35434;SDS011;21556;55.782;37.528;2023-04-08T14:47:59;7.05;;;4.40;;
35434;SDS011;21556;55.782;37.528;2023-04-08T14:50:28;11.98;;;4.45;;
35434;SDS011;21556;55.782;37.528;2023-04-08T14:52:55;10.00;;;4.85;;
35434;SDS011;21556;55.782;37.528;2023-04-08T14:55:21;10.02;;;5.28;;
35434;SDS011;21556;55.782;37.528;2023-04-08T14:57:52;10.15;;;4.90;;
35434;SDS011;21556;55.782;37.528;2023-04-08T15:00:19;13.40;;;4.82;;
35434;SDS011;21556;55.782;37.528;2023-04-08T15:02:45;15.38;;;4.28;;
35434;SDS011;21556;55.782;37.528;2023-04-08T15:05:13;10.30;;;4.45;;